sensor_id;sensor_type;location;lat;lon;timestamp;temperature;humidity
18884;DHT22;9574;47.282;9.640;2022-07-01T00:00:54;21.70;99.90
18884;DHT22;9574;47.282;9.640;2022-07-01T00:03:21;22.00;99.90
18884;DHT22;9574;47.282;9.640;2022-07-01T00:05:48;22.20;99.90
18884;DHT22;9574;47.282;9.640;2022-07-01T00:08:15;22.00;99.90
18884;DHT22;9574;47.282;9.640;2022-07-01T00:10:42;22.10;99.90
18884;DHT22;9574;47.282;9.640;2022-07-01T00:13:10;22.10;99.90
18884;DHT22;9574;47.282;9.640;2022-07-01T00:15:37;21.80;99.90
18884;DHT22;9574;47.282;9.640;2022-07-01T00:18:05;21.80;99.90
18884;DHT22;9574;47.282;9.640;2022-07-01T00:20:32;22.10;99.90
18884;DHT22;9574;47.282;9.640;2022-07-01T00:22:59;22.20;99.90
18884;DHT22;9574;47.282;9.640;2022-07-01T00:25:26;22.30;99.90
18884;DHT22;9574;47.282;9.640;2022-07-01T00:27:53;22.40;99.90
18884;DHT22;9574;47.282;9.640;2022-07-01T00:30:20;22.40;99.90
18884;DHT22;9574;47.282;9.640;2022-07-01T00:32:47;22.30;99.90
18884;DHT22;9574;47.282;9.640;2022-07-01T00:35:15;22.20;99.90
18884;DHT22;9574;47.282;9.640;2022-07-01T00:37:42;22.20;99.90
18884;DHT22;9574;47.282;9.640;2022-07-01T00:40:10;22.20;99.90
18884;DHT22;9574;47.282;9.640;2022-07-01T00:42:39;22.10;99.90
18884;DHT22;9574;47.282;9.640;2022-07-01T00:45:08;21.90;99.90
18884;DHT22;9574;47.282;9.640;2022-07-01T00:47:36;21.60;99.90
18884;DHT22;9574;47.282;9.640;2022-07-01T00:50:07;21.50;99.90
18884;DHT22;9574;47.282;9.640;2022-07-01T00:52:36;21.50;99.90
18884;DHT22;9574;47.282;9.640;2022-07-01T00:55:04;21.50;99.90
18884;DHT22;9574;47.282;9.640;2022-07-01T00:57:34;21.50;99.90
18884;DHT22;9574;47.282;9.640;2022-07-01T01:00:04;21.50;99.90
18884;DHT22;9574;47.282;9.640;2022-07-01T01:02:31;21.40;99.90
18884;DHT22;9574;47.282;9.640;2022-07-01T01:04:58;21.40;99.90
18884;DHT22;9574;47.282;9.640;2022-07-01T01:07:25;21.30;99.90
18884;DHT22;9574;47.282;9.640;2022-07-01T01:09:54;21.30;99.90
18884;DHT22;9574;47.282;9.640;2022-07-01T01:12:22;21.20;99.90
18884;DHT22;9574;47.282;9.640;2022-07-01T01:14:52;21.20;99.90
18884;DHT22;9574;47.282;9.640;2022-07-01T01:17:19;21.20;99.90
18884;DHT22;9574;47.282;9.640;2022-07-01T01:19:48;21.30;99.90
18884;DHT22;9574;47.282;9.640;2022-07-01T01:22:17;21.20;99.90
18884;DHT22;9574;47.282;9.640;2022-07-01T01:24:46;21.20;99.90
18884;DHT22;9574;47.282;9.640;2022-07-01T01:27:14;20.80;99.90
18884;DHT22;9574;47.282;9.640;2022-07-01T01:29:42;20.50;99.90
18884;DHT22;9574;47.282;9.640;2022-07-01T01:32:10;20.10;99.90
18884;DHT22;9574;47.282;9.640;2022-07-01T01:34:38;19.90;99.90
18884;DHT22;9574;47.282;9.640;2022-07-01T01:37:06;19.70;99.90
18884;DHT22;9574;47.282;9.640;2022-07-01T01:39:35;19.50;99.90
18884;DHT22;9574;47.282;9.640;2022-07-01T01:42:04;19.40;99.90
18884;DHT22;9574;47.282;9.640;2022-07-01T01:44:31;19.50;99.90
18884;DHT22;9574;47.282;9.640;2022-07-01T01:46:58;19.50;99.90
18884;DHT22;9574;47.282;9.640;2022-07-01T01:49:25;19.30;99.90
18884;DHT22;9574;47.282;9.640;2022-07-01T01:51:52;19.10;99.90
18884;DHT22;9574;47.282;9.640;2022-07-01T01:54:20;19.00;99.90
18884;DHT22;9574;47.282;9.640;2022-07-01T01:56:48;18.90;99.90
18884;DHT22;9574;47.282;9.640;2022-07-01T01:59:15;19.00;99.90
18884;DHT22;9574;47.282;9.640;2022-07-01T02:01:42;18.90;99.90
18884;DHT22;9574;47.282;9.640;2022-07-01T02:04:09;19.00;99.90
18884;DHT22;9574;47.282;9.640;2022-07-01T02:06:36;19.20;99.90
18884;DHT22;9574;47.282;9.640;2022-07-01T02:09:05;19.60;99.90
18884;DHT22;9574;47.282;9.640;2022-07-01T02:11:32;19.90;99.90
18884;DHT22;9574;47.282;9.640;2022-07-01T02:14:00;19.90;99.90
18884;DHT22;9574;47.282;9.640;2022-07-01T02:16:27;20.00;99.90
18884;DHT22;9574;47.282;9.640;2022-07-01T02:18:54;20.00;99.90
18884;DHT22;9574;47.282;9.640;2022-07-01T02:21:21;19.90;99.90
18884;DHT22;9574;47.282;9.640;2022-07-01T02:23:48;19.90;99.90
18884;DHT22;9574;47.282;9.640;2022-07-01T02:26:17;19.80;99.90
18884;DHT22;9574;47.282;9.640;2022-07-01T02:28:44;19.50;99.90
18884;DHT22;9574;47.282;9.640;2022-07-01T02:31:12;19.30;99.90
18884;DHT22;9574;47.282;9.640;2022-07-01T02:33:39;19.30;99.90
18884;DHT22;9574;47.282;9.640;2022-07-01T02:36:06;19.10;99.90
18884;DHT22;9574;47.282;9.640;2022-07-01T02:38:33;19.10;99.90
18884;DHT22;9574;47.282;9.640;2022-07-01T02:41:00;19.20;99.90
18884;DHT22;9574;47.282;9.640;2022-07-01T02:43:27;19.40;99.90
18884;DHT22;9574;47.282;9.640;2022-07-01T02:45:56;19.40;99.90
18884;DHT22;9574;47.282;9.640;2022-07-01T02:48:24;19.40;99.90
18884;DHT22;9574;47.282;9.640;2022-07-01T02:50:51;19.30;99.90
18884;DHT22;9574;47.282;9.640;2022-07-01T02:53:18;19.40;99.90
18884;DHT22;9574;47.282;9.640;2022-07-01T02:55:45;19.30;99.90
18884;DHT22;9574;47.282;9.640;2022-07-01T02:58:12;18.80;99.90
18884;DHT22;9574;47.282;9.640;2022-07-01T03:00:39;18.70;99.90
18884;DHT22;9574;47.282;9.640;2022-07-01T03:03:06;18.80;99.90
18884;DHT22;9574;47.282;9.640;2022-07-01T03:05:34;18.70;99.90
18884;DHT22;9574;47.282;9.640;2022-07-01T03:08:01;18.50;99.90
18884;DHT22;9574;47.282;9.640;2022-07-01T03:10:28;18.50;99.90
18884;DHT22;9574;47.282;9.640;2022-07-01T03:12:55;18.50;99.90
18884;DHT22;9574;47.282;9.640;2022-07-01T03:15:24;18.60;99.90
18884;DHT22;9574;47.282;9.640;2022-07-01T03:17:51;19.00;99.90
18884;DHT22;9574;47.282;9.640;2022-07-01T03:20:18;19.30;99.90
18884;DHT22;9574;47.282;9.640;2022-07-01T03:22:46;19.50;99.90
18884;DHT22;9574;47.282;9.640;2022-07-01T03:25:15;19.30;99.90
18884;DHT22;9574;47.282;9.640;2022-07-01T03:27:42;19.50;99.90
18884;DHT22;9574;47.282;9.640;2022-07-01T03:30:14;19.20;99.90
18884;DHT22;9574;47.282;9.640;2022-07-01T03:32:41;18.70;99.90
18884;DHT22;9574;47.282;9.640;2022-07-01T03:35:08;18.40;99.90
18884;DHT22;9574;47.282;9.640;2022-07-01T03:37:57;18.10;99.90
18884;DHT22;9574;47.282;9.640;2022-07-01T03:40:24;17.90;99.90
18884;DHT22;9574;47.282;9.640;2022-07-01T03:42:51;17.90;99.90
18884;DHT22;9574;47.282;9.640;2022-07-01T03:45:18;17.90;99.90
18884;DHT22;9574;47.282;9.640;2022-07-01T03:47:46;17.90;99.90
18884;DHT22;9574;47.282;9.640;2022-07-01T03:50:13;17.70;99.90
18884;DHT22;9574;47.282;9.640;2022-07-01T03:52:40;17.70;99.90
18884;DHT22;9574;47.282;9.640;2022-07-01T03:55:09;17.70;99.90
18884;DHT22;9574;47.282;9.640;2022-07-01T03:57:36;17.80;99.90
18884;DHT22;9574;47.282;9.640;2022-07-01T04:00:03;17.80;99.90
18884;DHT22;9574;47.282;9.640;2022-07-01T04:02:31;17.70;99.90
18884;DHT22;9574;47.282;9.640;2022-07-01T04:04:58;17.70;99.90
18884;DHT22;9574;47.282;9.640;2022-07-01T04:07:25;17.70;99.90
18884;DHT22;9574;47.282;9.640;2022-07-01T04:09:53;17.60;99.90
18884;DHT22;9574;47.282;9.640;2022-07-01T04:12:21;17.90;99.90
18884;DHT22;9574;47.282;9.640;2022-07-01T04:14:48;18.10;99.90
18884;DHT22;9574;47.282;9.640;2022-07-01T04:17:15;18.10;99.90
18884;DHT22;9574;47.282;9.640;2022-07-01T04:19:42;18.20;99.90
18884;DHT22;9574;47.282;9.640;2022-07-01T04:22:10;18.50;99.90
18884;DHT22;9574;47.282;9.640;2022-07-01T04:24:54;18.60;99.90
18884;DHT22;9574;47.282;9.640;2022-07-01T04:27:22;18.00;99.90
18884;DHT22;9574;47.282;9.640;2022-07-01T04:29:49;17.60;99.90
18884;DHT22;9574;47.282;9.640;2022-07-01T04:32:17;17.30;99.90
18884;DHT22;9574;47.282;9.640;2022-07-01T04:34:44;17.50;99.90
18884;DHT22;9574;47.282;9.640;2022-07-01T04:37:11;17.70;99.90
18884;DHT22;9574;47.282;9.640;2022-07-01T04:39:37;17.60;99.90
18884;DHT22;9574;47.282;9.640;2022-07-01T04:42:05;17.70;99.90
18884;DHT22;9574;47.282;9.640;2022-07-01T04:44:35;17.40;99.90
18884;DHT22;9574;47.282;9.640;2022-07-01T04:47:03;17.10;99.90
18884;DHT22;9574;47.282;9.640;2022-07-01T04:49:31;17.00;99.90
18884;DHT22;9574;47.282;9.640;2022-07-01T04:51:58;16.90;99.90
18884;DHT22;9574;47.282;9.640;2022-07-01T04:54:25;17.10;99.90
18884;DHT22;9574;47.282;9.640;2022-07-01T04:56:53;17.00;99.90
18884;DHT22;9574;47.282;9.640;2022-07-01T04:59:20;17.10;99.90
18884;DHT22;9574;47.282;9.640;2022-07-01T05:01:49;17.10;99.90
18884;DHT22;9574;47.282;9.640;2022-07-01T05:04:16;17.10;99.90
18884;DHT22;9574;47.282;9.640;2022-07-01T05:06:44;17.10;99.90
18884;DHT22;9574;47.282;9.640;2022-07-01T05:09:11;16.80;99.90
18884;DHT22;9574;47.282;9.640;2022-07-01T05:11:38;16.80;99.90
18884;DHT22;9574;47.282;9.640;2022-07-01T05:14:06;16.60;99.90
18884;DHT22;9574;47.282;9.640;2022-07-01T05:16:33;16.60;99.90
18884;DHT22;9574;47.282;9.640;2022-07-01T05:19:01;16.60;99.90
18884;DHT22;9574;47.282;9.640;2022-07-01T05:21:46;16.30;99.90
18884;DHT22;9574;47.282;9.640;2022-07-01T05:24:27;16.10;99.90
18884;DHT22;9574;47.282;9.640;2022-07-01T05:26:58;15.90;99.90
18884;DHT22;9574;47.282;9.640;2022-07-01T05:29:25;16.00;99.90
18884;DHT22;9574;47.282;9.640;2022-07-01T05:31:52;16.00;99.90
18884;DHT22;9574;47.282;9.640;2022-07-01T05:34:21;16.20;99.90
18884;DHT22;9574;47.282;9.640;2022-07-01T05:36:48;16.10;99.90
18884;DHT22;9574;47.282;9.640;2022-07-01T05:39:15;16.30;99.90
18884;DHT22;9574;47.282;9.640;2022-07-01T05:41:42;16.40;99.90
18884;DHT22;9574;47.282;9.640;2022-07-01T05:44:09;16.40;99.90
18884;DHT22;9574;47.282;9.640;2022-07-01T05:46:36;16.20;99.90
18884;DHT22;9574;47.282;9.640;2022-07-01T05:49:03;16.10;99.90
18884;DHT22;9574;47.282;9.640;2022-07-01T05:51:32;16.20;99.90
18884;DHT22;9574;47.282;9.640;2022-07-01T05:53:59;16.00;99.90
18884;DHT22;9574;47.282;9.640;2022-07-01T05:56:26;16.00;99.90
18884;DHT22;9574;47.282;9.640;2022-07-01T05:58:53;15.80;99.90
18884;DHT22;9574;47.282;9.640;2022-07-01T06:01:20;16.00;99.90
18884;DHT22;9574;47.282;9.640;2022-07-01T06:03:48;16.20;99.90
18884;DHT22;9574;47.282;9.640;2022-07-01T06:06:15;16.10;99.90
18884;DHT22;9574;47.282;9.640;2022-07-01T06:08:45;16.00;99.90
18884;DHT22;9574;47.282;9.640;2022-07-01T06:11:12;16.10;99.90
18884;DHT22;9574;47.282;9.640;2022-07-01T06:13:40;16.00;99.90
18884;DHT22;9574;47.282;9.640;2022-07-01T06:16:07;15.90;99.90
18884;DHT22;9574;47.282;9.640;2022-07-01T06:18:34;15.80;99.90
18884;DHT22;9574;47.282;9.640;2022-07-01T06:21:01;16.00;99.90
18884;DHT22;9574;47.282;9.640;2022-07-01T06:23:28;16.00;99.90
18884;DHT22;9574;47.282;9.640;2022-07-01T06:25:57;15.90;99.90
18884;DHT22;9574;47.282;9.640;2022-07-01T06:28:24;15.90;99.90
18884;DHT22;9574;47.282;9.640;2022-07-01T06:30:55;15.90;99.90
18884;DHT22;9574;47.282;9.640;2022-07-01T06:33:22;16.00;99.90
18884;DHT22;9574;47.282;9.640;2022-07-01T06:35:49;16.20;99.90
18884;DHT22;9574;47.282;9.640;2022-07-01T06:38:16;16.10;99.90
18884;DHT22;9574;47.282;9.640;2022-07-01T06:40:43;15.90;99.90
18884;DHT22;9574;47.282;9.640;2022-07-01T06:43:32;15.90;99.90
18884;DHT22;9574;47.282;9.640;2022-07-01T06:46:00;15.90;99.90
18884;DHT22;9574;47.282;9.640;2022-07-01T06:48:27;15.80;99.90
18884;DHT22;9574;47.282;9.640;2022-07-01T06:50:54;15.80;99.90
18884;DHT22;9574;47.282;9.640;2022-07-01T06:53:21;15.80;99.90
18884;DHT22;9574;47.282;9.640;2022-07-01T06:55:48;15.70;99.90
18884;DHT22;9574;47.282;9.640;2022-07-01T06:58:15;15.70;99.90
18884;DHT22;9574;47.282;9.640;2022-07-01T07:00:43;15.80;99.90
18884;DHT22;9574;47.282;9.640;2022-07-01T07:03:10;15.80;99.90
18884;DHT22;9574;47.282;9.640;2022-07-01T07:05:37;15.70;99.90
18884;DHT22;9574;47.282;9.640;2022-07-01T07:08:04;15.70;99.90
18884;DHT22;9574;47.282;9.640;2022-07-01T07:10:31;15.70;99.90
18884;DHT22;9574;47.282;9.640;2022-07-01T07:12:58;15.90;99.90
18884;DHT22;9574;47.282;9.640;2022-07-01T07:15:25;15.80;99.90
18884;DHT22;9574;47.282;9.640;2022-07-01T07:17:53;15.80;99.90
18884;DHT22;9574;47.282;9.640;2022-07-01T07:20:23;15.90;99.90
18884;DHT22;9574;47.282;9.640;2022-07-01T07:22:50;16.20;99.90
18884;DHT22;9574;47.282;9.640;2022-07-01T07:25:17;16.10;99.90
18884;DHT22;9574;47.282;9.640;2022-07-01T07:27:44;16.30;99.90
18884;DHT22;9574;47.282;9.640;2022-07-01T07:30:12;16.40;99.90
18884;DHT22;9574;47.282;9.640;2022-07-01T07:32:39;16.50;99.90
18884;DHT22;9574;47.282;9.640;2022-07-01T07:35:09;16.60;99.90
18884;DHT22;9574;47.282;9.640;2022-07-01T07:37:36;16.60;99.90
18884;DHT22;9574;47.282;9.640;2022-07-01T07:40:04;16.50;99.90
18884;DHT22;9574;47.282;9.640;2022-07-01T07:42:33;16.40;99.90
18884;DHT22;9574;47.282;9.640;2022-07-01T07:45:00;16.40;99.90
18884;DHT22;9574;47.282;9.640;2022-07-01T07:47:27;16.40;99.90
18884;DHT22;9574;47.282;9.640;2022-07-01T07:49:54;16.50;99.90
18884;DHT22;9574;47.282;9.640;2022-07-01T07:52:23;16.90;99.90
18884;DHT22;9574;47.282;9.640;2022-07-01T07:54:50;17.30;99.90
18884;DHT22;9574;47.282;9.640;2022-07-01T07:57:17;17.30;99.90
18884;DHT22;9574;47.282;9.640;2022-07-01T07:59:44;17.50;99.90
18884;DHT22;9574;47.282;9.640;2022-07-01T08:02:11;17.50;99.90
18884;DHT22;9574;47.282;9.640;2022-07-01T08:04:38;17.50;99.90
18884;DHT22;9574;47.282;9.640;2022-07-01T08:07:05;17.30;99.90
18884;DHT22;9574;47.282;9.640;2022-07-01T08:09:33;17.50;99.90
18884;DHT22;9574;47.282;9.640;2022-07-01T08:12:00;17.10;99.90
18884;DHT22;9574;47.282;9.640;2022-07-01T08:14:28;17.10;99.90
18884;DHT22;9574;47.282;9.640;2022-07-01T08:16:55;16.90;99.90
18884;DHT22;9574;47.282;9.640;2022-07-01T08:19:22;16.70;99.90
18884;DHT22;9574;47.282;9.640;2022-07-01T08:21:49;16.80;99.90
18884;DHT22;9574;47.282;9.640;2022-07-01T08:24:16;16.80;99.90
18884;DHT22;9574;47.282;9.640;2022-07-01T08:26:44;17.00;99.90
18884;DHT22;9574;47.282;9.640;2022-07-01T08:29:11;17.10;99.90
18884;DHT22;9574;47.282;9.640;2022-07-01T08:31:38;17.10;99.90
18884;DHT22;9574;47.282;9.640;2022-07-01T08:34:05;17.30;99.90
18884;DHT22;9574;47.282;9.640;2022-07-01T08:36:33;17.40;99.90
18884;DHT22;9574;47.282;9.640;2022-07-01T08:39:01;17.50;99.90
18884;DHT22;9574;47.282;9.640;2022-07-01T08:41:28;17.60;99.90
18884;DHT22;9574;47.282;9.640;2022-07-01T08:43:56;17.70;99.90
18884;DHT22;9574;47.282;9.640;2022-07-01T08:46:24;17.70;99.90
18884;DHT22;9574;47.282;9.640;2022-07-01T08:48:53;17.60;99.90
18884;DHT22;9574;47.282;9.640;2022-07-01T08:51:20;17.60;99.90
18884;DHT22;9574;47.282;9.640;2022-07-01T08:53:47;17.80;99.90
18884;DHT22;9574;47.282;9.640;2022-07-01T08:56:14;17.70;99.90
18884;DHT22;9574;47.282;9.640;2022-07-01T08:58:59;17.70;99.90
18884;DHT22;9574;47.282;9.640;2022-07-01T09:01:26;17.70;99.90
18884;DHT22;9574;47.282;9.640;2022-07-01T09:03:55;17.80;99.90
18884;DHT22;9574;47.282;9.640;2022-07-01T09:06:23;17.80;99.90
18884;DHT22;9574;47.282;9.640;2022-07-01T09:08:50;17.70;99.90
18884;DHT22;9574;47.282;9.640;2022-07-01T09:11:18;17.80;99.90
18884;DHT22;9574;47.282;9.640;2022-07-01T09:14:06;17.80;99.90
18884;DHT22;9574;47.282;9.640;2022-07-01T09:16:40;17.80;99.90
18884;DHT22;9574;47.282;9.640;2022-07-01T09:19:07;17.30;99.90
18884;DHT22;9574;47.282;9.640;2022-07-01T09:21:34;17.50;99.90
18884;DHT22;9574;47.282;9.640;2022-07-01T09:24:03;17.70;99.90
18884;DHT22;9574;47.282;9.640;2022-07-01T09:26:31;17.70;99.90
18884;DHT22;9574;47.282;9.640;2022-07-01T09:28:58;18.00;99.90
18884;DHT22;9574;47.282;9.640;2022-07-01T09:31:33;18.20;99.90
18884;DHT22;9574;47.282;9.640;2022-07-01T09:34:05;18.30;99.90
18884;DHT22;9574;47.282;9.640;2022-07-01T09:36:33;18.50;99.90
18884;DHT22;9574;47.282;9.640;2022-07-01T09:39:04;18.40;99.90
18884;DHT22;9574;47.282;9.640;2022-07-01T09:41:40;18.40;99.90
18884;DHT22;9574;47.282;9.640;2022-07-01T09:44:08;18.60;99.90
18884;DHT22;9574;47.282;9.640;2022-07-01T09:46:37;18.60;99.90
18884;DHT22;9574;47.282;9.640;2022-07-01T09:49:04;18.50;99.90
18884;DHT22;9574;47.282;9.640;2022-07-01T09:51:31;18.50;99.90
18884;DHT22;9574;47.282;9.640;2022-07-01T09:53:58;18.40;99.90
18884;DHT22;9574;47.282;9.640;2022-07-01T09:56:25;18.40;99.90
18884;DHT22;9574;47.282;9.640;2022-07-01T09:58:52;18.40;99.90
18884;DHT22;9574;47.282;9.640;2022-07-01T10:01:19;18.40;99.90
18884;DHT22;9574;47.282;9.640;2022-07-01T10:03:48;18.50;99.90
18884;DHT22;9574;47.282;9.640;2022-07-01T10:09:40;18.60;99.90
18884;DHT22;9574;47.282;9.640;2022-07-01T10:12:35;18.60;99.90
18884;DHT22;9574;47.282;9.640;2022-07-01T10:15:04;18.40;99.90
18884;DHT22;9574;47.282;9.640;2022-07-01T10:17:35;18.50;99.90
18884;DHT22;9574;47.282;9.640;2022-07-01T10:20:10;18.50;99.90
18884;DHT22;9574;47.282;9.640;2022-07-01T10:22:38;18.50;99.90
18884;DHT22;9574;47.282;9.640;2022-07-01T10:25:34;18.50;99.90
18884;DHT22;9574;47.282;9.640;2022-07-01T10:28:15;18.60;99.90
18884;DHT22;9574;47.282;9.640;2022-07-01T10:30:56;18.50;99.90
18884;DHT22;9574;47.282;9.640;2022-07-01T10:33:30;18.50;99.90
18884;DHT22;9574;47.282;9.640;2022-07-01T10:36:06;18.40;99.90
18884;DHT22;9574;47.282;9.640;2022-07-01T10:38:34;18.30;99.90
18884;DHT22;9574;47.282;9.640;2022-07-01T10:41:01;18.20;99.90
18884;DHT22;9574;47.282;9.640;2022-07-01T10:43:37;18.20;99.90
18884;DHT22;9574;47.282;9.640;2022-07-01T10:46:07;18.20;99.90
18884;DHT22;9574;47.282;9.640;2022-07-01T10:48:34;18.10;99.90
18884;DHT22;9574;47.282;9.640;2022-07-01T10:51:01;18.20;99.90
18884;DHT22;9574;47.282;9.640;2022-07-01T10:53:44;18.20;99.90
18884;DHT22;9574;47.282;9.640;2022-07-01T10:56:15;17.70;99.90
18884;DHT22;9574;47.282;9.640;2022-07-01T10:58:42;17.30;99.90
18884;DHT22;9574;47.282;9.640;2022-07-01T11:01:10;17.30;99.90
18884;DHT22;9574;47.282;9.640;2022-07-01T11:03:37;17.50;99.90
18884;DHT22;9574;47.282;9.640;2022-07-01T11:06:05;17.60;99.90
18884;DHT22;9574;47.282;9.640;2022-07-01T11:08:34;17.60;99.90
18884;DHT22;9574;47.282;9.640;2022-07-01T11:11:02;17.60;99.90
18884;DHT22;9574;47.282;9.640;2022-07-01T11:13:31;17.60;99.90
18884;DHT22;9574;47.282;9.640;2022-07-01T11:16:00;17.60;99.90
18884;DHT22;9574;47.282;9.640;2022-07-01T11:18:27;17.60;99.90
18884;DHT22;9574;47.282;9.640;2022-07-01T11:21:06;17.60;99.90
18884;DHT22;9574;47.282;9.640;2022-07-01T11:23:34;17.10;99.90
18884;DHT22;9574;47.282;9.640;2022-07-01T11:26:01;16.80;99.90
18884;DHT22;9574;47.282;9.640;2022-07-01T11:28:28;16.90;99.90
18884;DHT22;9574;47.282;9.640;2022-07-01T11:30:59;16.90;99.90
18884;DHT22;9574;47.282;9.640;2022-07-01T11:33:26;17.00;99.90
18884;DHT22;9574;47.282;9.640;2022-07-01T11:35:53;17.10;99.90
18884;DHT22;9574;47.282;9.640;2022-07-01T11:38:38;17.10;99.90
18884;DHT22;9574;47.282;9.640;2022-07-01T11:41:25;17.10;99.90
18884;DHT22;9574;47.282;9.640;2022-07-01T11:43:52;17.10;99.90
18884;DHT22;9574;47.282;9.640;2022-07-01T11:46:19;17.10;99.90
18884;DHT22;9574;47.282;9.640;2022-07-01T11:48:48;17.20;99.90
18884;DHT22;9574;47.282;9.640;2022-07-01T11:53:55;17.20;99.90
18884;DHT22;9574;47.282;9.640;2022-07-01T11:56:29;17.20;99.90
18884;DHT22;9574;47.282;9.640;2022-07-01T11:58:56;17.10;99.90
18884;DHT22;9574;47.282;9.640;2022-07-01T12:01:26;17.10;99.90
18884;DHT22;9574;47.282;9.640;2022-07-01T12:03:54;16.90;99.90
18884;DHT22;9574;47.282;9.640;2022-07-01T12:06:22;16.70;99.90
18884;DHT22;9574;47.282;9.640;2022-07-01T12:08:50;16.70;99.90
18884;DHT22;9574;47.282;9.640;2022-07-01T12:11:19;16.50;99.90
18884;DHT22;9574;47.282;9.640;2022-07-01T12:13:47;16.50;99.90
18884;DHT22;9574;47.282;9.640;2022-07-01T12:16:15;16.20;99.90
18884;DHT22;9574;47.282;9.640;2022-07-01T12:18:56;16.00;99.90
18884;DHT22;9574;47.282;9.640;2022-07-01T12:21:24;16.10;99.90
18884;DHT22;9574;47.282;9.640;2022-07-01T12:24:05;16.20;99.90
18884;DHT22;9574;47.282;9.640;2022-07-01T12:26:35;16.60;99.90
18884;DHT22;9574;47.282;9.640;2022-07-01T12:29:02;16.60;99.90
18884;DHT22;9574;47.282;9.640;2022-07-01T12:31:29;16.30;99.90
18884;DHT22;9574;47.282;9.640;2022-07-01T12:33:56;16.20;99.90
18884;DHT22;9574;47.282;9.640;2022-07-01T12:36:23;16.30;99.90
18884;DHT22;9574;47.282;9.640;2022-07-01T12:39:00;16.40;99.90
18884;DHT22;9574;47.282;9.640;2022-07-01T12:41:30;16.60;99.90
18884;DHT22;9574;47.282;9.640;2022-07-01T12:44:00;16.60;99.90
18884;DHT22;9574;47.282;9.640;2022-07-01T12:46:28;16.60;99.90
18884;DHT22;9574;47.282;9.640;2022-07-01T12:48:55;16.80;99.90
18884;DHT22;9574;47.282;9.640;2022-07-01T12:51:29;16.90;99.90
18884;DHT22;9574;47.282;9.640;2022-07-01T12:53:56;16.60;99.90
18884;DHT22;9574;47.282;9.640;2022-07-01T12:56:24;16.50;99.90
18884;DHT22;9574;47.282;9.640;2022-07-01T12:58:52;16.20;99.90
18884;DHT22;9574;47.282;9.640;2022-07-01T13:01:20;16.20;99.90
18884;DHT22;9574;47.282;9.640;2022-07-01T13:03:48;16.30;99.90
18884;DHT22;9574;47.282;9.640;2022-07-01T13:06:15;16.20;99.90
18884;DHT22;9574;47.282;9.640;2022-07-01T13:08:42;16.00;99.90
18884;DHT22;9574;47.282;9.640;2022-07-01T13:11:09;16.10;99.90
18884;DHT22;9574;47.282;9.640;2022-07-01T13:13:36;16.20;99.90
18884;DHT22;9574;47.282;9.640;2022-07-01T13:16:03;16.60;99.90
18884;DHT22;9574;47.282;9.640;2022-07-01T13:18:32;17.10;99.90
18884;DHT22;9574;47.282;9.640;2022-07-01T13:20:59;17.50;99.90
18884;DHT22;9574;47.282;9.640;2022-07-01T13:23:26;17.60;99.90
18884;DHT22;9574;47.282;9.640;2022-07-01T13:25:53;17.90;99.90
18884;DHT22;9574;47.282;9.640;2022-07-01T13:28:20;18.40;99.90
18884;DHT22;9574;47.282;9.640;2022-07-01T13:30:47;18.80;99.90
18884;DHT22;9574;47.282;9.640;2022-07-01T13:33:14;18.80;99.90
18884;DHT22;9574;47.282;9.640;2022-07-01T13:35:43;18.90;99.90
18884;DHT22;9574;47.282;9.640;2022-07-01T13:38:10;19.10;99.90
18884;DHT22;9574;47.282;9.640;2022-07-01T13:40:37;19.10;99.90
18884;DHT22;9574;47.282;9.640;2022-07-01T13:43:03;19.10;99.90
18884;DHT22;9574;47.282;9.640;2022-07-01T13:45:30;19.20;99.90
18884;DHT22;9574;47.282;9.640;2022-07-01T13:47:57;19.40;99.90
18884;DHT22;9574;47.282;9.640;2022-07-01T13:50:24;19.50;99.90
18884;DHT22;9574;47.282;9.640;2022-07-01T13:52:53;19.70;99.90
18884;DHT22;9574;47.282;9.640;2022-07-01T13:55:20;19.60;99.90
18884;DHT22;9574;47.282;9.640;2022-07-01T13:57:47;19.80;99.90
18884;DHT22;9574;47.282;9.640;2022-07-01T14:00:14;20.00;99.90
18884;DHT22;9574;47.282;9.640;2022-07-01T14:02:41;19.90;99.90
18884;DHT22;9574;47.282;9.640;2022-07-01T14:05:09;19.90;99.90
18884;DHT22;9574;47.282;9.640;2022-07-01T14:07:36;19.80;99.90
18884;DHT22;9574;47.282;9.640;2022-07-01T14:10:05;19.60;99.90
18884;DHT22;9574;47.282;9.640;2022-07-01T14:12:32;19.60;99.90
18884;DHT22;9574;47.282;9.640;2022-07-01T14:14:59;19.50;99.90
18884;DHT22;9574;47.282;9.640;2022-07-01T14:17:26;19.40;99.90
18884;DHT22;9574;47.282;9.640;2022-07-01T14:19:53;18.80;99.90
18884;DHT22;9574;47.282;9.640;2022-07-01T14:22:22;18.50;99.90
18884;DHT22;9574;47.282;9.640;2022-07-01T14:24:49;18.10;99.90
18884;DHT22;9574;47.282;9.640;2022-07-01T14:27:17;18.00;99.90
18884;DHT22;9574;47.282;9.640;2022-07-01T14:29:44;17.80;99.90
18884;DHT22;9574;47.282;9.640;2022-07-01T14:32:11;17.70;99.90
18884;DHT22;9574;47.282;9.640;2022-07-01T14:34:38;17.60;99.90
18884;DHT22;9574;47.282;9.640;2022-07-01T14:37:05;17.80;99.90
18884;DHT22;9574;47.282;9.640;2022-07-01T14:39:32;17.90;99.90
18884;DHT22;9574;47.282;9.640;2022-07-01T14:41:59;18.20;99.90
18884;DHT22;9574;47.282;9.640;2022-07-01T14:44:27;18.10;99.90
18884;DHT22;9574;47.282;9.640;2022-07-01T14:46:54;18.20;99.90
18884;DHT22;9574;47.282;9.640;2022-07-01T14:49:21;18.40;99.90
18884;DHT22;9574;47.282;9.640;2022-07-01T14:51:49;18.70;99.90
18884;DHT22;9574;47.282;9.640;2022-07-01T14:54:16;18.80;99.90
18884;DHT22;9574;47.282;9.640;2022-07-01T14:56:43;18.90;99.90
18884;DHT22;9574;47.282;9.640;2022-07-01T14:59:10;18.80;99.90
18884;DHT22;9574;47.282;9.640;2022-07-01T15:01:39;18.90;99.90
18884;DHT22;9574;47.282;9.640;2022-07-01T15:04:06;18.80;99.90
18884;DHT22;9574;47.282;9.640;2022-07-01T15:06:33;18.70;99.90
18884;DHT22;9574;47.282;9.640;2022-07-01T15:09:00;18.80;99.90
18884;DHT22;9574;47.282;9.640;2022-07-01T15:11:28;18.60;99.90
18884;DHT22;9574;47.282;9.640;2022-07-01T15:13:55;18.60;99.90
18884;DHT22;9574;47.282;9.640;2022-07-01T15:16:22;18.70;99.90
18884;DHT22;9574;47.282;9.640;2022-07-01T15:18:52;18.70;99.90
18884;DHT22;9574;47.282;9.640;2022-07-01T15:21:19;18.50;99.90
18884;DHT22;9574;47.282;9.640;2022-07-01T15:23:46;18.60;99.90
18884;DHT22;9574;47.282;9.640;2022-07-01T15:26:12;18.50;99.90
18884;DHT22;9574;47.282;9.640;2022-07-01T15:28:39;18.30;99.90
18884;DHT22;9574;47.282;9.640;2022-07-01T15:31:06;18.10;99.90
18884;DHT22;9574;47.282;9.640;2022-07-01T15:33:35;17.80;99.90
18884;DHT22;9574;47.282;9.640;2022-07-01T15:36:03;17.80;99.90
18884;DHT22;9574;47.282;9.640;2022-07-01T15:38:31;18.20;99.90
18884;DHT22;9574;47.282;9.640;2022-07-01T15:40:58;18.30;99.90
18884;DHT22;9574;47.282;9.640;2022-07-01T15:43:27;18.50;99.90
18884;DHT22;9574;47.282;9.640;2022-07-01T15:45:54;18.60;99.90
18884;DHT22;9574;47.282;9.640;2022-07-01T15:48:21;18.80;99.90
18884;DHT22;9574;47.282;9.640;2022-07-01T15:50:48;19.00;99.90
18884;DHT22;9574;47.282;9.640;2022-07-01T15:53:18;18.80;99.90
18884;DHT22;9574;47.282;9.640;2022-07-01T15:55:46;18.90;99.90
18884;DHT22;9574;47.282;9.640;2022-07-01T15:58:15;19.00;99.90